sensor_id;sensor_type;location;lat;lon;timestamp;P1;durP1;ratioP1;P2;durP2;ratioP2
21339;SDS011;10828;47.064;15.422;2023-04-03T07:46:30;2.70;;;1.10;;
21339;SDS011;10828;47.064;15.422;2023-04-03T07:48:55;2.70;;;0.97;;
21339;SDS011;10828;47.064;15.422;2023-04-03T07:51:21;2.53;;;1.00;;
21339;SDS011;10828;47.064;15.422;2023-04-03T07:53:49;2.73;;;1.20;;
21339;SDS011;10828;47.064;15.422;2023-04-03T07:56:16;3.37;;;1.20;;
21339;SDS011;10828;47.064;15.422;2023-04-03T07:58:42;2.23;;;1.00;;
21339;SDS011;10828;47.064;15.422;2023-04-03T08:01:10;1.87;;;0.93;;
21339;SDS011;10828;47.064;15.422;2023-04-03T08:03:37;4.10;;;1.40;;
21339;SDS011;10828;47.064;15.422;2023-04-03T08:06:04;2.43;;;0.97;;
21339;SDS011;10828;47.064;15.422;2023-04-03T08:08:34;3.43;;;1.30;;
21339;SDS011;10828;47.064;15.422;2023-04-03T08:11:02;3.40;;;0.90;;
21339;SDS011;10828;47.064;15.422;2023-04-03T08:13:30;9.03;;;1.03;;
21339;SDS011;10828;47.064;15.422;2023-04-03T08:15:56;1.90;;;0.90;;
21339;SDS011;10828;47.064;15.422;2023-04-03T08:18:24;7.87;;;1.60;;
21339;SDS011;10828;47.064;15.422;2023-04-03T08:20:52;3.87;;;1.80;;
21339;SDS011;10828;47.064;15.422;2023-04-03T08:23:18;2.63;;;1.20;;
21339;SDS011;10828;47.064;15.422;2023-04-03T08:25:45;4.10;;;1.10;;
21339;SDS011;10828;47.064;15.422;2023-04-03T08:28:11;2.83;;;1.00;;
21339;SDS011;10828;47.064;15.422;2023-04-03T08:30:41;6.47;;;1.10;;
21339;SDS011;10828;47.064;15.422;2023-04-03T08:33:08;3.57;;;1.20;;
21339;SDS011;10828;47.064;15.422;2023-04-03T08:35:40;5.43;;;1.30;;
21339;SDS011;10828;47.064;15.422;2023-04-03T08:38:25;2.37;;;1.00;;
21339;SDS011;10828;47.064;15.422;2023-04-03T08:41:04;5.77;;;1.10;;
21339;SDS011;10828;47.064;15.422;2023-04-03T08:46:06;2.80;;;1.17;;
21339;SDS011;10828;47.064;15.422;2023-04-03T08:48:42;1.37;;;0.70;;
21339;SDS011;10828;47.064;15.422;2023-04-03T08:51:11;2.03;;;0.90;;
21339;SDS011;10828;47.064;15.422;2023-04-03T08:53:54;2.10;;;1.10;;
21339;SDS011;10828;47.064;15.422;2023-04-03T08:56:30;2.17;;;0.90;;
21339;SDS011;10828;47.064;15.422;2023-04-03T08:58:58;3.00;;;0.93;;
21339;SDS011;10828;47.064;15.422;2023-04-03T09:01:33;5.00;;;1.50;;
21339;SDS011;10828;47.064;15.422;2023-04-03T09:04:02;2.73;;;0.70;;
21339;SDS011;10828;47.064;15.422;2023-04-03T09:06:35;1.17;;;0.90;;
21339;SDS011;10828;47.064;15.422;2023-04-03T09:17:14;3.83;;;1.30;;
21339;SDS011;10828;47.064;15.422;2023-04-03T09:20:06;4.00;;;1.40;;
21339;SDS011;10828;47.064;15.422;2023-04-03T09:22:55;6.00;;;0.90;;
21339;SDS011;10828;47.064;15.422;2023-04-03T09:25:31;2.03;;;0.60;;
21339;SDS011;10828;47.064;15.422;2023-04-03T09:28:03;3.07;;;0.80;;
21339;SDS011;10828;47.064;15.422;2023-04-03T09:30:29;1.97;;;0.90;;
21339;SDS011;10828;47.064;15.422;2023-04-03T09:32:56;1.50;;;1.00;;
21339;SDS011;10828;47.064;15.422;2023-04-03T09:35:30;3.63;;;1.27;;
21339;SDS011;10828;47.064;15.422;2023-04-03T09:37:59;3.60;;;1.00;;
21339;SDS011;10828;47.064;15.422;2023-04-03T09:40:28;4.30;;;1.00;;
21339;SDS011;10828;47.064;15.422;2023-04-03T09:43:02;5.07;;;1.10;;
21339;SDS011;10828;47.064;15.422;2023-04-03T09:45:51;3.63;;;0.90;;
21339;SDS011;10828;47.064;15.422;2023-04-03T09:48:22;3.33;;;0.90;;
21339;SDS011;10828;47.064;15.422;2023-04-03T09:50:55;2.57;;;0.90;;
21339;SDS011;10828;47.064;15.422;2023-04-03T09:56:00;3.17;;;0.93;;
21339;SDS011;10828;47.064;15.422;2023-04-03T09:58:33;5.77;;;1.27;;
21339;SDS011;10828;47.064;15.422;2023-04-03T10:01:10;2.83;;;1.13;;
21339;SDS011;10828;47.064;15.422;2023-04-03T10:06:44;2.10;;;0.90;;
21339;SDS011;10828;47.064;15.422;2023-04-03T10:11:56;3.87;;;0.90;;
21339;SDS011;10828;47.064;15.422;2023-04-03T10:14:31;2.10;;;0.77;;
21339;SDS011;10828;47.064;15.422;2023-04-03T10:17:17;4.10;;;1.33;;
21339;SDS011;10828;47.064;15.422;2023-04-03T10:28:19;2.87;;;0.97;;
21339;SDS011;10828;47.064;15.422;2023-04-03T10:30:54;2.97;;;1.03;;
21339;SDS011;10828;47.064;15.422;2023-04-03T10:36:46;2.07;;;0.90;;
21339;SDS011;10828;47.064;15.422;2023-04-03T10:42:23;2.50;;;1.10;;
21339;SDS011;10828;47.064;15.422;2023-04-03T10:48:13;5.23;;;0.83;;
21339;SDS011;10828;47.064;15.422;2023-04-03T10:56:50;1.27;;;0.80;;
21339;SDS011;10828;47.064;15.422;2023-04-03T10:59:41;1.70;;;0.90;;
21339;SDS011;10828;47.064;15.422;2023-04-03T11:04:44;1.53;;;0.80;;
21339;SDS011;10828;47.064;15.422;2023-04-03T11:09:55;2.07;;;0.87;;
21339;SDS011;10828;47.064;15.422;2023-04-03T11:12:51;3.37;;;1.03;;
21339;SDS011;10828;47.064;15.422;2023-04-03T11:15:17;2.17;;;0.90;;
21339;SDS011;10828;47.064;15.422;2023-04-03T11:17:48;2.97;;;1.07;;
21339;SDS011;10828;47.064;15.422;2023-04-03T11:20:32;1.10;;;0.60;;
21339;SDS011;10828;47.064;15.422;2023-04-03T11:25:46;5.00;;;1.37;;
21339;SDS011;10828;47.064;15.422;2023-04-03T11:28:18;2.30;;;1.10;;
21339;SDS011;10828;47.064;15.422;2023-04-03T11:30:57;4.43;;;1.10;;
21339;SDS011;10828;47.064;15.422;2023-04-03T11:34:14;2.00;;;0.83;;
21339;SDS011;10828;47.064;15.422;2023-04-03T11:39:23;1.73;;;0.80;;
21339;SDS011;10828;47.064;15.422;2023-04-03T11:41:55;2.47;;;1.27;;
21339;SDS011;10828;47.064;15.422;2023-04-03T11:44:40;1.50;;;0.73;;
21339;SDS011;10828;47.064;15.422;2023-04-03T11:47:10;2.67;;;1.27;;
21339;SDS011;10828;47.064;15.422;2023-04-03T11:49:50;3.73;;;0.97;;
21339;SDS011;10828;47.064;15.422;2023-04-03T12:03:33;2.57;;;0.97;;
21339;SDS011;10828;47.064;15.422;2023-04-03T12:16:23;4.37;;;1.00;;
21339;SDS011;10828;47.064;15.422;2023-04-03T12:19:00;6.00;;;1.10;;
21339;SDS011;10828;47.064;15.422;2023-04-03T12:29:34;2.13;;;0.90;;
21339;SDS011;10828;47.064;15.422;2023-04-03T12:32:34;2.57;;;1.00;;
21339;SDS011;10828;47.064;15.422;2023-04-03T12:38:14;3.10;;;1.63;;
21339;SDS011;10828;47.064;15.422;2023-04-03T12:46:22;9.93;;;1.20;;
21339;SDS011;10828;47.064;15.422;2023-04-03T12:48:54;3.87;;;1.20;;
21339;SDS011;10828;47.064;15.422;2023-04-03T12:51:37;1.60;;;0.87;;
21339;SDS011;10828;47.064;15.422;2023-04-03T12:59:57;2.60;;;0.80;;
21339;SDS011;10828;47.064;15.422;2023-04-03T13:02:26;1.47;;;0.83;;
21339;SDS011;10828;47.064;15.422;2023-04-03T13:05:05;5.67;;;1.13;;
21339;SDS011;10828;47.064;15.422;2023-04-03T13:07:33;7.63;;;1.20;;
21339;SDS011;10828;47.064;15.422;2023-04-03T13:12:48;1.07;;;0.70;;
21339;SDS011;10828;47.064;15.422;2023-04-03T13:17:52;4.70;;;1.00;;
21339;SDS011;10828;47.064;15.422;2023-04-03T13:22:57;2.37;;;1.13;;
21339;SDS011;10828;47.064;15.422;2023-04-03T13:25:28;2.17;;;0.93;;
21339;SDS011;10828;47.064;15.422;2023-04-03T13:27:57;6.63;;;1.27;;
21339;SDS011;10828;47.064;15.422;2023-04-03T13:30:34;3.90;;;1.40;;
21339;SDS011;10828;47.064;15.422;2023-04-03T13:33:03;3.40;;;0.80;;
21339;SDS011;10828;47.064;15.422;2023-04-03T13:35:45;2.90;;;1.00;;
21339;SDS011;10828;47.064;15.422;2023-04-03T13:43:47;3.87;;;1.10;;
21339;SDS011;10828;47.064;15.422;2023-04-03T13:48:43;3.27;;;1.10;;
21339;SDS011;10828;47.064;15.422;2023-04-03T13:53:45;2.40;;;1.00;;
21339;SDS011;10828;47.064;15.422;2023-04-03T13:56:30;1.93;;;0.80;;
21339;SDS011;10828;47.064;15.422;2023-04-03T14:04:33;3.47;;;1.07;;
21339;SDS011;10828;47.064;15.422;2023-04-03T14:07:13;2.17;;;0.90;;
21339;SDS011;10828;47.064;15.422;2023-04-03T14:09:43;1.90;;;0.90;;
21339;SDS011;10828;47.064;15.422;2023-04-03T14:12:13;2.17;;;1.00;;
21339;SDS011;10828;47.064;15.422;2023-04-03T14:14:52;1.93;;;0.83;;
21339;SDS011;10828;47.064;15.422;2023-04-03T14:17:22;2.23;;;0.70;;
21339;SDS011;10828;47.064;15.422;2023-04-03T14:19:49;2.00;;;0.90;;
21339;SDS011;10828;47.064;15.422;2023-04-03T14:22:21;2.50;;;0.90;;
21339;SDS011;10828;47.064;15.422;2023-04-03T14:24:50;2.47;;;1.13;;
21339;SDS011;10828;47.064;15.422;2023-04-03T14:29:54;3.80;;;1.30;;
21339;SDS011;10828;47.064;15.422;2023-04-03T14:32:23;7.30;;;1.30;;
21339;SDS011;10828;47.064;15.422;2023-04-03T14:34:52;3.37;;;1.13;;
21339;SDS011;10828;47.064;15.422;2023-04-03T14:37:23;6.77;;;1.67;;
21339;SDS011;10828;47.064;15.422;2023-04-03T14:39:53;3.13;;;1.00;;
21339;SDS011;10828;47.064;15.422;2023-04-03T14:42:21;3.67;;;1.47;;
21339;SDS011;10828;47.064;15.422;2023-04-03T14:44:49;3.43;;;1.40;;
21339;SDS011;10828;47.064;15.422;2023-04-03T14:47:18;2.50;;;1.10;;
21339;SDS011;10828;47.064;15.422;2023-04-03T14:49:47;5.80;;;1.30;;
21339;SDS011;10828;47.064;15.422;2023-04-03T14:52:18;3.07;;;1.30;;
21339;SDS011;10828;47.064;15.422;2023-04-03T14:54:50;2.37;;;1.07;;
21339;SDS011;10828;47.064;15.422;2023-04-03T14:57:17;2.03;;;1.20;;
21339;SDS011;10828;47.064;15.422;2023-04-03T14:59:50;5.00;;;1.17;;
21339;SDS011;10828;47.064;15.422;2023-04-03T15:02:33;3.00;;;1.17;;
21339;SDS011;10828;47.064;15.422;2023-04-03T15:05:02;4.30;;;1.23;;
21339;SDS011;10828;47.064;15.422;2023-04-03T15:07:36;3.93;;;1.40;;
21339;SDS011;10828;47.064;15.422;2023-04-03T15:10:25;5.33;;;1.23;;
21339;SDS011;10828;47.064;15.422;2023-04-03T15:12:53;3.83;;;1.20;;
21339;SDS011;10828;47.064;15.422;2023-04-03T15:15:22;5.43;;;1.23;;
21339;SDS011;10828;47.064;15.422;2023-04-03T15:17:54;3.73;;;1.50;;
21339;SDS011;10828;47.064;15.422;2023-04-03T15:20:26;5.37;;;1.47;;
21339;SDS011;10828;47.064;15.422;2023-04-03T15:23:00;3.37;;;1.20;;
21339;SDS011;10828;47.064;15.422;2023-04-03T15:25:26;3.77;;;1.63;;
21339;SDS011;10828;47.064;15.422;2023-04-03T15:27:55;2.50;;;1.10;;
21339;SDS011;10828;47.064;15.422;2023-04-03T15:30:24;4.00;;;1.47;;
21339;SDS011;10828;47.064;15.422;2023-04-03T15:32:50;3.73;;;1.40;;
21339;SDS011;10828;47.064;15.422;2023-04-03T15:35:16;4.50;;;1.40;;
21339;SDS011;10828;47.064;15.422;2023-04-03T15:37:45;3.77;;;1.17;;
21339;SDS011;10828;47.064;15.422;2023-04-03T15:40:19;3.73;;;1.37;;
21339;SDS011;10828;47.064;15.422;2023-04-03T15:42:48;9.47;;;1.83;;
21339;SDS011;10828;47.064;15.422;2023-04-03T15:45:15;2.90;;;1.43;;
21339;SDS011;10828;47.064;15.422;2023-04-03T15:47:41;4.37;;;1.53;;
21339;SDS011;10828;47.064;15.422;2023-04-03T15:50:14;5.30;;;1.77;;
21339;SDS011;10828;47.064;15.422;2023-04-03T15:52:41;3.50;;;1.10;;
21339;SDS011;10828;47.064;15.422;2023-04-03T15:55:08;6.23;;;1.80;;
21339;SDS011;10828;47.064;15.422;2023-04-03T15:57:35;2.63;;;1.47;;
21339;SDS011;10828;47.064;15.422;2023-04-03T16:02:33;3.93;;;1.70;;
21339;SDS011;10828;47.064;15.422;2023-04-03T16:07:30;6.23;;;2.40;;
21339;SDS011;10828;47.064;15.422;2023-04-03T16:10:05;7.33;;;1.90;;
21339;SDS011;10828;47.064;15.422;2023-04-03T16:12:34;5.63;;;1.93;;
21339;SDS011;10828;47.064;15.422;2023-04-03T16:15:03;6.90;;;1.63;;
21339;SDS011;10828;47.064;15.422;2023-04-03T16:17:30;2.70;;;1.30;;
21339;SDS011;10828;47.064;15.422;2023-04-03T16:19:58;4.73;;;1.80;;
21339;SDS011;10828;47.064;15.422;2023-04-03T16:22:26;3.67;;;1.60;;
21339;SDS011;10828;47.064;15.422;2023-04-03T16:24:54;3.87;;;1.90;;
21339;SDS011;10828;47.064;15.422;2023-04-03T16:27:21;9.43;;;1.70;;
21339;SDS011;10828;47.064;15.422;2023-04-03T16:29:47;7.80;;;1.90;;
21339;SDS011;10828;47.064;15.422;2023-04-03T16:32:15;5.97;;;1.63;;
21339;SDS011;10828;47.064;15.422;2023-04-03T16:34:42;14.53;;;2.10;;
21339;SDS011;10828;47.064;15.422;2023-04-03T16:37:09;5.30;;;1.83;;
21339;SDS011;10828;47.064;15.422;2023-04-03T16:39:35;4.90;;;1.70;;
21339;SDS011;10828;47.064;15.422;2023-04-03T16:42:02;4.67;;;1.70;;
21339;SDS011;10828;47.064;15.422;2023-04-03T16:44:27;4.43;;;1.73;;
21339;SDS011;10828;47.064;15.422;2023-04-03T16:46:54;5.10;;;1.73;;
21339;SDS011;10828;47.064;15.422;2023-04-03T16:49:21;3.63;;;1.73;;
21339;SDS011;10828;47.064;15.422;2023-04-03T16:51:50;4.23;;;1.77;;
21339;SDS011;10828;47.064;15.422;2023-04-03T16:54:18;7.57;;;1.87;;
21339;SDS011;10828;47.064;15.422;2023-04-03T16:56:44;5.23;;;1.90;;
21339;SDS011;10828;47.064;15.422;2023-04-03T16:59:11;5.93;;;1.90;;
21339;SDS011;10828;47.064;15.422;2023-04-03T17:01:38;4.67;;;2.10;;
21339;SDS011;10828;47.064;15.422;2023-04-03T17:04:12;3.30;;;1.60;;
21339;SDS011;10828;47.064;15.422;2023-04-03T17:06:41;5.40;;;1.80;;
21339;SDS011;10828;47.064;15.422;2023-04-03T17:09:09;5.33;;;2.10;;
21339;SDS011;10828;47.064;15.422;2023-04-03T17:11:36;4.33;;;2.00;;
21339;SDS011;10828;47.064;15.422;2023-04-03T17:14:03;4.03;;;1.73;;
21339;SDS011;10828;47.064;15.422;2023-04-03T17:16:32;6.83;;;2.30;;
21339;SDS011;10828;47.064;15.422;2023-04-03T17:19:02;5.37;;;1.93;;
21339;SDS011;10828;47.064;15.422;2023-04-03T17:21:29;4.07;;;1.77;;
21339;SDS011;10828;47.064;15.422;2023-04-03T17:24:00;3.10;;;1.60;;
21339;SDS011;10828;47.064;15.422;2023-04-03T17:26:34;4.47;;;1.80;;
21339;SDS011;10828;47.064;15.422;2023-04-03T17:29:04;5.60;;;1.90;;
21339;SDS011;10828;47.064;15.422;2023-04-03T17:31:30;7.20;;;1.90;;
21339;SDS011;10828;47.064;15.422;2023-04-03T17:33:58;3.70;;;1.77;;
21339;SDS011;10828;47.064;15.422;2023-04-03T17:36:29;5.77;;;2.00;;
21339;SDS011;10828;47.064;15.422;2023-04-03T17:38:58;4.23;;;2.00;;
21339;SDS011;10828;47.064;15.422;2023-04-03T17:41:25;6.83;;;2.30;;
21339;SDS011;10828;47.064;15.422;2023-04-03T17:43:52;4.80;;;1.97;;
21339;SDS011;10828;47.064;15.422;2023-04-03T17:46:27;5.83;;;2.47;;
21339;SDS011;10828;47.064;15.422;2023-04-03T17:48:58;9.27;;;2.40;;
21339;SDS011;10828;47.064;15.422;2023-04-03T17:51:25;4.80;;;2.27;;
21339;SDS011;10828;47.064;15.422;2023-04-03T17:53:59;6.23;;;1.90;;
21339;SDS011;10828;47.064;15.422;2023-04-03T17:56:26;5.57;;;2.23;;
21339;SDS011;10828;47.064;15.422;2023-04-03T17:59:03;3.70;;;2.00;;
21339;SDS011;10828;47.064;15.422;2023-04-03T18:01:30;3.50;;;1.50;;
21339;SDS011;10828;47.064;15.422;2023-04-03T18:04:02;5.13;;;2.13;;
21339;SDS011;10828;47.064;15.422;2023-04-03T18:06:36;3.90;;;1.90;;
21339;SDS011;10828;47.064;15.422;2023-04-03T18:11:36;4.40;;;2.33;;
21339;SDS011;10828;47.064;15.422;2023-04-03T18:14:03;4.30;;;1.80;;
21339;SDS011;10828;47.064;15.422;2023-04-03T18:16:31;4.80;;;2.10;;
21339;SDS011;10828;47.064;15.422;2023-04-03T18:18:59;4.23;;;2.10;;
21339;SDS011;10828;47.064;15.422;2023-04-03T18:21:25;5.03;;;1.63;;
21339;SDS011;10828;47.064;15.422;2023-04-03T18:23:52;5.80;;;2.10;;
21339;SDS011;10828;47.064;15.422;2023-04-03T18:26:19;11.07;;;2.27;;
21339;SDS011;10828;47.064;15.422;2023-04-03T18:28:49;4.40;;;1.80;;
21339;SDS011;10828;47.064;15.422;2023-04-03T18:31:21;5.83;;;2.07;;
21339;SDS011;10828;47.064;15.422;2023-04-03T18:33:49;3.90;;;1.90;;
21339;SDS011;10828;47.064;15.422;2023-04-03T18:36:18;5.00;;;1.97;;
21339;SDS011;10828;47.064;15.422;2023-04-03T18:41:15;4.57;;;1.93;;
21339;SDS011;10828;47.064;15.422;2023-04-03T18:43:48;5.70;;;2.13;;
21339;SDS011;10828;47.064;15.422;2023-04-03T18:46:15;3.73;;;1.80;;
21339;SDS011;10828;47.064;15.422;2023-04-03T18:48:42;5.40;;;2.10;;
21339;SDS011;10828;47.064;15.422;2023-04-03T18:51:10;7.17;;;1.87;;
21339;SDS011;10828;47.064;15.422;2023-04-03T18:53:37;7.00;;;2.30;;
21339;SDS011;10828;47.064;15.422;2023-04-03T18:56:04;6.30;;;1.90;;
21339;SDS011;10828;47.064;15.422;2023-04-03T18:58:31;8.93;;;2.37;;
21339;SDS011;10828;47.064;15.422;2023-04-03T19:00:58;4.93;;;2.10;;
21339;SDS011;10828;47.064;15.422;2023-04-03T19:03:32;5.13;;;1.77;;
21339;SDS011;10828;47.064;15.422;2023-04-03T19:06:03;9.97;;;2.20;;
21339;SDS011;10828;47.064;15.422;2023-04-03T19:08:32;7.03;;;2.40;;
21339;SDS011;10828;47.064;15.422;2023-04-03T19:11:01;5.47;;;2.27;;
21339;SDS011;10828;47.064;15.422;2023-04-03T19:13:40;4.33;;;2.00;;
21339;SDS011;10828;47.064;15.422;2023-04-03T19:16:09;6.87;;;2.10;;
21339;SDS011;10828;47.064;15.422;2023-04-03T19:18:36;10.27;;;2.17;;
21339;SDS011;10828;47.064;15.422;2023-04-03T19:21:05;5.40;;;1.63;;
21339;SDS011;10828;47.064;15.422;2023-04-03T19:23:32;8.27;;;1.57;;
21339;SDS011;10828;47.064;15.422;2023-04-03T19:26:00;5.93;;;2.07;;
21339;SDS011;10828;47.064;15.422;2023-04-03T19:28:34;3.90;;;1.80;;
21339;SDS011;10828;47.064;15.422;2023-04-03T19:31:14;6.00;;;1.83;;
21339;SDS011;10828;47.064;15.422;2023-04-03T19:33:43;5.87;;;1.97;;
21339;SDS011;10828;47.064;15.422;2023-04-03T19:36:10;4.70;;;2.03;;
21339;SDS011;10828;47.064;15.422;2023-04-03T19:38:39;7.23;;;2.20;;
21339;SDS011;10828;47.064;15.422;2023-04-03T19:41:12;4.30;;;1.93;;
21339;SDS011;10828;47.064;15.422;2023-04-03T19:43:41;4.47;;;2.00;;
21339;SDS011;10828;47.064;15.422;2023-04-03T19:46:16;6.83;;;2.47;;
21339;SDS011;10828;47.064;15.422;2023-04-03T19:48:43;11.17;;;2.33;;
21339;SDS011;10828;47.064;15.422;2023-04-03T19:51:12;5.37;;;1.87;;
21339;SDS011;10828;47.064;15.422;2023-04-03T19:53:39;9.83;;;2.30;;
21339;SDS011;10828;47.064;15.422;2023-04-03T19:56:07;5.40;;;2.23;;
21339;SDS011;10828;47.064;15.422;2023-04-03T19:58:35;4.10;;;1.87;;
21339;SDS011;10828;47.064;15.422;2023-04-03T20:01:04;7.67;;;1.67;;
21339;SDS011;10828;47.064;15.422;2023-04-03T20:03:32;6.47;;;1.83;;
21339;SDS011;10828;47.064;15.422;2023-04-03T20:05:58;12.90;;;2.10;;
21339;SDS011;10828;47.064;15.422;2023-04-03T20:08:27;4.53;;;1.83;;
21339;SDS011;10828;47.064;15.422;2023-04-03T20:10:55;4.97;;;1.90;;
21339;SDS011;10828;47.064;15.422;2023-04-03T20:13:22;5.77;;;2.20;;
21339;SDS011;10828;47.064;15.422;2023-04-03T20:15:51;4.40;;;1.70;;
21339;SDS011;10828;47.064;15.422;2023-04-03T20:18:18;9.43;;;1.93;;
21339;SDS011;10828;47.064;15.422;2023-04-03T20:23:27;5.83;;;2.23;;
21339;SDS011;10828;47.064;15.422;2023-04-03T20:25:57;5.50;;;1.87;;
21339;SDS011;10828;47.064;15.422;2023-04-03T20:28:25;4.70;;;1.87;;
21339;SDS011;10828;47.064;15.422;2023-04-03T20:30:53;4.23;;;1.73;;
21339;SDS011;10828;47.064;15.422;2023-04-03T20:33:22;3.63;;;1.60;;
21339;SDS011;10828;47.064;15.422;2023-04-03T20:35:49;4.17;;;1.60;;
21339;SDS011;10828;47.064;15.422;2023-04-03T20:38:17;5.10;;;1.90;;
21339;SDS011;10828;47.064;15.422;2023-04-03T20:40:54;4.77;;;2.00;;
21339;SDS011;10828;47.064;15.422;2023-04-03T20:43:26;4.60;;;1.70;;
21339;SDS011;10828;47.064;15.422;2023-04-03T20:45:54;7.60;;;1.83;;
21339;SDS011;10828;47.064;15.422;2023-04-03T20:48:20;4.17;;;1.70;;
21339;SDS011;10828;47.064;15.422;2023-04-03T20:53:17;8.20;;;1.77;;
21339;SDS011;10828;47.064;15.422;2023-04-03T20:55:58;4.93;;;2.07;;
21339;SDS011;10828;47.064;15.422;2023-04-03T20:58:27;3.53;;;1.53;;
21339;SDS011;10828;47.064;15.422;2023-04-03T21:00:57;4.40;;;1.67;;
21339;SDS011;10828;47.064;15.422;2023-04-03T21:03:26;5.43;;;1.77;;
21339;SDS011;10828;47.064;15.422;2023-04-03T21:20:27;5.20;;;1.67;;
21339;SDS011;10828;47.064;15.422;2023-04-03T21:22:53;7.87;;;1.90;;
21339;SDS011;10828;47.064;15.422;2023-04-03T21:25:18;4.53;;;1.60;;
21339;SDS011;10828;47.064;15.422;2023-04-03T21:27:45;6.37;;;1.70;;
21339;SDS011;10828;47.064;15.422;2023-04-03T21:30:13;3.13;;;1.67;;
21339;SDS011;10828;47.064;15.422;2023-04-03T21:32:42;11.30;;;2.30;;
21339;SDS011;10828;47.064;15.422;2023-04-03T21:35:09;4.80;;;1.87;;
21339;SDS011;10828;47.064;15.422;2023-04-03T21:37:37;5.73;;;1.90;;
21339;SDS011;10828;47.064;15.422;2023-04-03T21:40:03;3.27;;;1.73;;
21339;SDS011;10828;47.064;15.422;2023-04-03T21:42:37;2.77;;;1.53;;
21339;SDS011;10828;47.064;15.422;2023-04-03T21:45:03;3.20;;;1.60;;
21339;SDS011;10828;47.064;15.422;2023-04-03T21:47:30;4.67;;;1.80;;
21339;SDS011;10828;47.064;15.422;2023-04-03T21:49:57;4.80;;;1.60;;
21339;SDS011;10828;47.064;15.422;2023-04-03T21:52:25;3.13;;;1.40;;
21339;SDS011;10828;47.064;15.422;2023-04-03T21:54:52;4.03;;;1.77;;
21339;SDS011;10828;47.064;15.422;2023-04-03T21:57:19;4.03;;;1.57;;
21339;SDS011;10828;47.064;15.422;2023-04-03T21:59:45;5.00;;;1.70;;
21339;SDS011;10828;47.064;15.422;2023-04-03T22:02:11;4.07;;;1.77;;
21339;SDS011;10828;47.064;15.422;2023-04-03T22:04:37;5.07;;;1.90;;
21339;SDS011;10828;47.064;15.422;2023-04-03T22:07:04;6.77;;;2.00;;
21339;SDS011;10828;47.064;15.422;2023-04-03T22:09:31;8.23;;;2.27;;
21339;SDS011;10828;47.064;15.422;2023-04-03T22:11:58;7.40;;;2.00;;
21339;SDS011;10828;47.064;15.422;2023-04-03T22:14:25;3.40;;;1.53;;
21339;SDS011;10828;47.064;15.422;2023-04-03T22:16:54;4.87;;;1.83;;
21339;SDS011;10828;47.064;15.422;2023-04-03T22:19:21;4.37;;;1.77;;
21339;SDS011;10828;47.064;15.422;2023-04-03T22:21:47;2.93;;;1.40;;
21339;SDS011;10828;47.064;15.422;2023-04-03T22:24:13;3.80;;;1.60;;
21339;SDS011;10828;47.064;15.422;2023-04-03T22:26:43;5.93;;;2.17;;
21339;SDS011;10828;47.064;15.422;2023-04-03T22:29:10;3.77;;;1.57;;
21339;SDS011;10828;47.064;15.422;2023-04-03T22:31:44;4.17;;;1.40;;
21339;SDS011;10828;47.064;15.422;2023-04-03T22:34:12;4.47;;;1.63;;
21339;SDS011;10828;47.064;15.422;2023-04-03T22:36:40;4.73;;;1.60;;
21339;SDS011;10828;47.064;15.422;2023-04-03T22:39:07;4.17;;;2.00;;
21339;SDS011;10828;47.064;15.422;2023-04-03T22:41:36;7.23;;;1.90;;
21339;SDS011;10828;47.064;15.422;2023-04-03T22:44:03;3.80;;;1.60;;
21339;SDS011;10828;47.064;15.422;2023-04-03T22:46:34;6.20;;;2.10;;
21339;SDS011;10828;47.064;15.422;2023-04-03T22:49:00;4.37;;;1.80;;
21339;SDS011;10828;47.064;15.422;2023-04-03T22:53:58;6.60;;;1.87;;
21339;SDS011;10828;47.064;15.422;2023-04-03T22:56:25;4.13;;;1.90;;
21339;SDS011;10828;47.064;15.422;2023-04-03T22:58:54;4.00;;;1.77;;
21339;SDS011;10828;47.064;15.422;2023-04-03T23:01:20;6.80;;;2.07;;
21339;SDS011;10828;47.064;15.422;2023-04-03T23:03:48;3.73;;;1.40;;
21339;SDS011;10828;47.064;15.422;2023-04-03T23:06:15;3.53;;;1.77;;
21339;SDS011;10828;47.064;15.422;2023-04-03T23:08:41;5.37;;;1.70;;
21339;SDS011;10828;47.064;15.422;2023-04-03T23:11:08;3.23;;;1.67;;
21339;SDS011;10828;47.064;15.422;2023-04-03T23:16:04;4.10;;;2.00;;
21339;SDS011;10828;47.064;15.422;2023-04-03T23:18:32;3.73;;;1.57;;
21339;SDS011;10828;47.064;15.422;2023-04-03T23:21:01;7.53;;;1.90;;
21339;SDS011;10828;47.064;15.422;2023-04-03T23:23:27;4.23;;;1.80;;
21339;SDS011;10828;47.064;15.422;2023-04-03T23:28:23;3.83;;;1.67;;
21339;SDS011;10828;47.064;15.422;2023-04-03T23:31:01;5.67;;;2.07;;
21339;SDS011;10828;47.064;15.422;2023-04-03T23:33:31;4.97;;;1.73;;
21339;SDS011;10828;47.064;15.422;2023-04-03T23:36:04;5.43;;;2.00;;
21339;SDS011;10828;47.064;15.422;2023-04-03T23:38:34;5.20;;;1.93;;
21339;SDS011;10828;47.064;15.422;2023-04-03T23:41:01;3.83;;;1.40;;
21339;SDS011;10828;47.064;15.422;2023-04-03T23:43:27;5.73;;;2.00;;
21339;SDS011;10828;47.064;15.422;2023-04-03T23:45:53;3.17;;;1.47;;
21339;SDS011;10828;47.064;15.422;2023-04-03T23:48:20;3.43;;;1.60;;
21339;SDS011;10828;47.064;15.422;2023-04-03T23:50:47;7.23;;;1.87;;
21339;SDS011;10828;47.064;15.422;2023-04-03T23:53:14;7.47;;;1.70;;
21339;SDS011;10828;47.064;15.422;2023-04-03T23:55:41;4.90;;;1.83;;
21339;SDS011;10828;47.064;15.422;2023-04-03T23:58:07;4.47;;;1.90;;
